createdAt,value
2023-03-26T05:01:11.488Z,15.92
2023-03-26T05:02:12.513Z,15.96
2023-03-26T05:03:12.584Z,16.01
2023-03-26T05:04:12.681Z,16.07
2023-03-26T05:05:12.710Z,16.14
2023-03-26T05:06:12.806Z,16.22
2023-03-26T05:07:12.806Z,16.29
2023-03-26T05:08:12.896Z,16.38
2023-03-26T05:09:12.952Z,16.46
2023-03-26T05:10:13.022Z,16.56
2023-03-26T05:11:13.146Z,16.65
2023-03-26T05:12:13.154Z,16.74
2023-03-26T05:13:13.178Z,16.81
2023-03-26T05:14:13.305Z,16.89
2023-03-26T05:15:13.288Z,16.94
2023-03-26T05:16:13.404Z,17.00
2023-03-26T05:17:13.437Z,17.06
2023-03-26T05:18:13.445Z,17.10
2023-03-26T05:19:13.481Z,17.15
2023-03-26T05:20:13.554Z,17.18
2023-03-26T05:21:13.683Z,17.21
2023-03-26T05:22:13.712Z,17.25
2023-03-26T05:23:13.757Z,17.28
2023-03-26T05:24:13.814Z,17.32
2023-03-26T05:25:13.884Z,17.35
2023-03-26T05:26:14.008Z,17.37
2023-03-26T05:27:14.034Z,17.39
2023-03-26T05:28:14.037Z,17.41
2023-03-26T05:29:14.089Z,17.43
2023-03-26T05:30:14.167Z,17.45
2023-03-26T05:31:14.253Z,17.46
2023-03-26T05:32:14.314Z,17.47
2023-03-26T05:33:14.464Z,17.48
2023-03-26T05:34:14.351Z,17.49
2023-03-26T05:35:14.435Z,17.49
2023-03-26T05:36:14.511Z,17.50
2023-03-26T05:37:14.559Z,17.51
2023-03-26T05:38:14.615Z,17.51
2023-03-26T05:39:14.803Z,17.52
2023-03-26T05:40:14.757Z,17.52
2023-03-26T05:41:14.821Z,17.53
2023-03-26T05:42:14.910Z,17.53
2023-03-26T05:43:14.981Z,17.54
2023-03-26T05:44:14.993Z,17.54
2023-03-26T05:45:15.119Z,17.54
2023-03-26T05:46:15.174Z,17.54
2023-03-26T05:47:15.204Z,17.55
2023-03-26T05:48:15.249Z,17.55
2023-03-26T05:49:15.319Z,17.56
2023-03-26T05:50:15.370Z,17.56
2023-03-26T05:51:15.465Z,17.57
2023-03-26T05:52:15.504Z,17.57
2023-03-26T05:53:15.527Z,17.58
2023-03-26T05:54:15.636Z,17.59
2023-03-26T05:55:15.703Z,17.60
2023-03-26T05:56:15.812Z,17.60
2023-03-26T05:57:15.862Z,17.60
2023-03-26T05:58:15.903Z,17.61
2023-03-26T05:59:15.965Z,17.63
2023-03-26T06:00:16.020Z,17.63
2023-03-26T06:01:17.350Z,17.63
2023-03-26T06:02:16.184Z,17.62
2023-03-26T06:03:16.289Z,17.62
2023-03-26T06:04:16.340Z,17.63
2023-03-26T06:05:16.287Z,17.63
2023-03-26T06:06:16.362Z,17.66
2023-03-26T06:07:16.441Z,17.66
2023-03-26T06:08:16.474Z,17.68
2023-03-26T06:09:16.516Z,17.69
2023-03-26T06:10:18.456Z,17.70
2023-03-26T06:11:16.615Z,17.72
2023-03-26T06:12:16.692Z,17.72
2023-03-26T06:13:16.747Z,17.71
2023-03-26T06:14:16.885Z,17.71
2023-03-26T06:15:16.887Z,17.72
2023-03-26T06:16:26.268Z,17.71
2023-03-26T06:17:17.108Z,17.72
2023-03-26T06:18:17.123Z,17.72
2023-03-26T06:19:17.617Z,17.72
2023-03-26T06:20:17.210Z,17.72
2023-03-26T06:21:17.307Z,17.73
2023-03-26T06:22:17.407Z,17.73
2023-03-26T06:23:17.467Z,17.74
2023-03-26T06:24:17.436Z,17.75
2023-03-26T06:25:17.490Z,17.75
2023-03-26T06:26:17.664Z,17.74
2023-03-26T06:27:17.689Z,17.73
2023-03-26T06:28:17.721Z,17.74
2023-03-26T06:29:17.781Z,17.73
2023-03-26T06:30:17.841Z,17.74
2023-03-26T06:31:17.941Z,17.75
2023-03-26T06:32:20.494Z,17.74
2023-03-26T06:33:18.027Z,17.75
2023-03-26T06:34:18.089Z,17.75
2023-03-26T06:35:18.148Z,17.75
2023-03-26T06:36:18.306Z,17.75
2023-03-26T06:37:18.265Z,17.75
2023-03-26T06:38:18.322Z,17.75
2023-03-26T06:39:18.396Z,17.76
2023-03-26T06:40:18.498Z,17.77
2023-03-26T06:41:18.505Z,17.78
2023-03-26T06:42:18.593Z,17.79
2023-03-26T06:43:18.638Z,17.78
2023-03-26T06:44:18.690Z,17.76
2023-03-26T06:45:18.766Z,17.75
2023-03-26T06:46:18.898Z,17.75
2023-03-26T06:47:18.972Z,17.75
2023-03-26T06:48:18.973Z,17.76
2023-03-26T06:49:19.079Z,17.74
2023-03-26T06:50:19.096Z,17.74
2023-03-26T06:51:19.145Z,17.74
2023-03-26T06:52:19.231Z,17.76
2023-03-26T06:53:19.249Z,17.78
2023-03-26T06:54:19.313Z,17.79
2023-03-26T06:55:19.468Z,17.78
2023-03-26T06:56:19.445Z,17.79
2023-03-26T06:57:19.533Z,17.77
2023-03-26T06:58:19.569Z,17.78
2023-03-26T06:59:19.661Z,17.78
2023-03-26T07:00:19.683Z,17.78
2023-03-26T07:01:19.815Z,17.78
2023-03-26T07:02:19.924Z,17.78
2023-03-26T07:03:19.869Z,17.80
2023-03-26T07:05:51.561Z,17.83
2023-03-26T07:06:52.636Z,17.84
2023-03-26T07:07:52.739Z,17.84
2023-03-26T07:08:52.786Z,17.84
2023-03-26T07:09:52.816Z,17.85
2023-03-26T07:10:53.359Z,17.86
2023-03-26T07:11:52.988Z,17.85
2023-03-26T07:12:53.167Z,17.87
2023-03-26T07:13:53.090Z,17.87
2023-03-26T07:14:53.114Z,17.89
2023-03-26T07:15:53.173Z,17.91
2023-03-26T07:16:53.245Z,17.93
2023-03-26T07:17:53.341Z,17.94
2023-03-26T07:18:53.327Z,17.95
2023-03-26T07:19:53.395Z,17.96
2023-03-26T07:20:53.901Z,17.96
2023-03-26T07:21:53.485Z,17.95
2023-03-26T07:26:51.822Z,17.98
2023-03-26T07:27:52.848Z,17.93
2023-03-26T07:29:03.612Z,17.95
2023-03-26T07:29:53.034Z,17.95
2023-03-26T07:31:53.155Z,17.99
2023-03-26T07:32:53.187Z,18.00
2023-03-26T07:33:54.018Z,18.00
2023-03-26T07:34:53.257Z,18.00
2023-03-26T07:35:53.301Z,17.97
2023-03-26T07:36:53.392Z,17.97
2023-03-26T07:37:53.436Z,17.96
2023-03-26T07:38:53.493Z,17.97
2023-03-26T07:39:53.568Z,18.01
2023-03-26T07:40:53.851Z,18.03
2023-03-26T07:41:53.721Z,18.04
2023-03-26T07:42:53.817Z,18.07
2023-03-26T07:43:53.870Z,18.06
2023-03-26T07:44:53.977Z,18.07
2023-03-26T07:45:54.335Z,18.07
2023-03-26T07:46:54.102Z,18.05
2023-03-26T07:47:54.120Z,18.05
2023-03-26T07:48:54.159Z,18.05
2023-03-26T07:49:54.195Z,18.05
2023-03-26T07:50:54.379Z,18.08
2023-03-26T07:51:54.358Z,18.10
2023-03-26T07:52:54.400Z,18.12
2023-03-26T07:53:54.456Z,18.12
2023-03-26T07:54:54.511Z,18.13
2023-03-26T07:55:54.575Z,18.13
2023-03-26T07:56:58.003Z,18.15
2023-03-26T07:57:54.698Z,18.13
2023-03-26T07:58:54.720Z,18.14
2023-03-26T07:59:54.773Z,18.15
2023-03-26T08:00:54.933Z,18.17
2023-03-26T08:01:54.924Z,18.16
2023-03-26T08:02:55.695Z,18.14
2023-03-26T08:03:55.063Z,18.13
2023-03-26T08:04:55.315Z,18.12
2023-03-26T08:05:55.088Z,18.12
2023-03-26T08:06:55.185Z,18.14
2023-03-26T08:07:55.224Z,18.13
2023-03-26T08:08:55.229Z,18.14
2023-03-26T08:09:56.102Z,18.13
2023-03-26T08:10:55.544Z,18.12
2023-03-26T08:11:57.072Z,18.13
2023-03-26T08:12:55.537Z,18.12
2023-03-26T08:13:55.611Z,18.12
2023-03-26T08:14:55.997Z,18.10
2023-03-26T08:15:56.991Z,18.11
2023-03-26T08:16:55.789Z,18.10
2023-03-26T08:17:55.924Z,18.12
2023-03-26T08:18:55.916Z,18.12
2023-03-26T08:19:56.447Z,18.13
2023-03-26T08:20:56.282Z,18.13
2023-03-26T08:21:56.132Z,18.13
2023-03-26T08:22:56.142Z,18.13
2023-03-26T08:23:55.920Z,18.15
2023-03-26T08:24:59.482Z,18.14
2023-03-26T08:25:56.293Z,18.15
2023-03-26T08:28:44.355Z,18.16
2023-03-26T08:29:45.444Z,18.15
2023-03-26T08:30:45.456Z,18.14
2023-03-26T08:31:45.512Z,18.13
2023-03-26T08:32:45.584Z,18.09
2023-03-26T08:33:45.634Z,18.08
2023-03-26T08:34:46.318Z,18.10
2023-03-26T08:35:45.757Z,18.10
2023-03-26T08:36:45.812Z,18.09
2023-03-26T08:37:46.222Z,18.06
2023-03-26T08:38:47.037Z,18.05
2023-03-26T08:39:46.227Z,18.06
2023-03-26T08:40:46.057Z,18.06
2023-03-26T08:41:46.124Z,18.05
2023-03-26T08:42:46.201Z,18.04
2023-03-26T08:43:46.328Z,18.04
2023-03-26T08:44:46.356Z,18.03
2023-03-26T08:45:46.449Z,18.03
2023-03-26T08:46:46.524Z,18.01
2023-03-26T08:47:46.583Z,18.01
2023-03-26T08:48:46.626Z,18.00
2023-03-26T08:49:46.651Z,18.01
2023-03-26T08:50:46.737Z,17.99
2023-03-26T08:51:46.765Z,17.99
2023-03-26T08:52:46.813Z,18.00
2023-03-26T08:53:46.891Z,18.00
2023-03-26T08:54:46.893Z,18.00
2023-03-26T08:55:46.944Z,18.00
2023-03-26T08:56:47.076Z,18.00
2023-03-26T08:57:47.119Z,18.00
2023-03-26T08:58:47.302Z,17.99
2023-03-26T08:59:47.225Z,17.99
2023-03-26T09:00:47.326Z,17.96
2023-03-26T09:01:47.410Z,17.96
2023-03-26T09:02:47.458Z,17.98
2023-03-26T09:03:47.528Z,18.00
2023-03-26T09:04:47.563Z,18.00
2023-03-26T09:05:47.559Z,18.02
2023-03-26T09:06:47.664Z,18.02
2023-03-26T09:07:47.712Z,18.04
2023-03-26T09:08:54.108Z,18.04
2023-03-26T09:09:47.839Z,18.03
2023-03-26T09:10:47.873Z,18.04
2023-03-26T09:11:47.952Z,18.06
2023-03-26T09:12:47.992Z,18.09
2023-03-26T09:13:48.062Z,18.09
2023-03-26T09:14:48.105Z,18.07
2023-03-26T09:15:48.286Z,18.06
2023-03-26T09:16:48.246Z,18.06
2023-03-26T09:17:48.305Z,18.08
2023-03-26T09:18:48.378Z,18.09
2023-03-26T09:19:48.404Z,18.08
2023-03-26T09:20:48.493Z,18.06
2023-03-26T09:21:48.560Z,18.08
2023-03-26T09:22:48.633Z,18.08
2023-03-26T09:23:48.724Z,18.07
2023-03-26T09:24:48.737Z,18.12
2023-03-26T09:25:48.774Z,18.12
2023-03-26T09:26:48.829Z,18.13
2023-03-26T09:27:48.935Z,18.14
2023-03-26T09:28:48.970Z,18.16
2023-03-26T09:29:49.041Z,18.15
2023-03-26T09:30:49.102Z,18.16
2023-03-26T09:31:49.148Z,18.18
2023-03-26T09:32:49.202Z,18.18
2023-03-26T09:33:49.299Z,18.19
2023-03-26T09:34:49.300Z,18.20
2023-03-26T09:35:49.441Z,18.21
2023-03-26T09:36:49.417Z,18.22
2023-03-26T09:37:56.244Z,18.25
2023-03-26T09:38:49.626Z,18.28
2023-03-26T09:39:49.594Z,18.33
2023-03-26T09:40:50.780Z,18.37
2023-03-26T09:41:49.740Z,18.76
2023-03-26T09:42:49.803Z,18.91
2023-03-26T09:43:49.878Z,18.80
2023-03-26T09:44:49.954Z,18.75
2023-03-26T09:45:49.995Z,18.71
2023-03-26T09:46:50.034Z,18.68
2023-03-26T09:47:50.214Z,18.65
2023-03-26T09:48:50.254Z,18.59
2023-03-26T09:49:50.188Z,18.62
2023-03-26T09:50:50.330Z,18.76
2023-03-26T09:51:50.320Z,18.95
2023-03-26T09:52:50.406Z,18.88
2023-03-26T09:53:50.479Z,18.88
2023-03-26T09:54:50.580Z,18.90
2023-03-26T09:55:50.560Z,18.86
2023-03-26T09:56:50.715Z,18.85
2023-03-26T09:57:50.718Z,18.80
2023-03-26T09:58:50.804Z,18.81
2023-03-26T09:59:50.856Z,18.78
2023-03-26T10:00:50.948Z,18.77
2023-03-26T10:01:50.985Z,18.75
2023-03-26T10:02:51.078Z,18.80
2023-03-26T10:03:51.149Z,19.24
2023-03-26T10:04:51.234Z,20.81
2023-03-26T10:05:51.301Z,21.55
2023-03-26T10:06:51.334Z,21.60
2023-03-26T10:07:51.397Z,22.33
2023-03-26T10:08:51.474Z,22.20
2023-03-26T10:09:51.517Z,22.19
2023-03-26T10:10:51.578Z,21.57
2023-03-26T10:11:51.634Z,21.12
2023-03-26T10:12:51.693Z,20.92
2023-03-26T10:13:51.771Z,20.74
2023-03-26T10:14:51.847Z,20.86
2023-03-26T10:15:51.915Z,21.04
2023-03-26T10:16:51.984Z,21.03
2023-03-26T10:17:52.077Z,20.75
2023-03-26T10:18:52.142Z,20.52
2023-03-26T10:19:52.177Z,20.46
2023-03-26T10:20:52.234Z,20.45
2023-03-26T10:21:52.281Z,20.42
2023-03-26T10:22:52.329Z,20.27
2023-03-26T10:23:52.419Z,20.12
2023-03-26T10:24:52.743Z,20.00
2023-03-26T10:25:52.609Z,19.93
2023-03-26T10:27:10.014Z,19.91
2023-03-26T10:27:52.670Z,19.81
2023-03-26T10:28:52.756Z,19.72
2023-03-26T10:29:52.826Z,19.72
2023-03-26T10:30:53.058Z,19.71
2023-03-26T10:31:52.865Z,20.02
2023-03-26T10:32:53.012Z,20.12
2023-03-26T10:33:52.968Z,19.99
2023-03-26T10:34:53.028Z,19.83
2023-03-26T10:35:53.115Z,19.71
2023-03-26T10:36:53.143Z,19.62
2023-03-26T10:37:53.212Z,19.53
2023-03-26T10:38:53.270Z,19.47
2023-03-26T10:39:53.327Z,19.53
2023-03-26T10:40:53.550Z,19.59
2023-03-26T10:41:53.459Z,19.69
2023-03-26T10:42:53.524Z,19.67
2023-03-26T10:44:05.106Z,19.54
2023-03-26T10:44:53.609Z,19.40
2023-03-26T10:45:53.795Z,19.28
2023-03-26T10:46:53.737Z,19.19
2023-03-26T10:47:54.485Z,19.15
2023-03-26T10:48:55.100Z,19.19
2023-03-26T10:51:47.839Z,19.19
2023-03-26T10:52:49.191Z,19.20
2023-03-26T10:53:48.967Z,19.33
2023-03-26T10:54:49.414Z,19.63
2023-03-26T10:55:49.154Z,19.80
2023-03-26T10:56:49.216Z,19.83
2023-03-26T10:57:49.238Z,19.77
2023-03-26T10:58:50.392Z,19.80
2023-03-26T10:59:49.355Z,20.21
2023-03-26T11:00:49.405Z,20.27
2023-03-26T11:06:46.803Z,22.35
2023-03-26T11:09:46.227Z,22.12
2023-03-26T11:10:47.264Z,21.65
2023-03-26T11:11:47.422Z,21.70
2023-03-26T11:14:41.271Z,23.93
2023-03-26T11:15:42.368Z,24.67
2023-03-26T11:16:42.465Z,25.09
2023-03-26T11:17:42.520Z,24.40
2023-03-26T11:18:42.585Z,23.57
2023-03-26T11:19:42.646Z,23.41
2023-03-26T11:20:42.703Z,24.13
2023-03-26T11:21:43.017Z,24.75
2023-03-26T11:22:43.003Z,24.29
2023-03-26T11:23:42.898Z,24.04
2023-03-26T11:24:42.951Z,23.74
2023-03-26T11:29:31.808Z,22.62
2023-03-26T11:30:20.046Z,22.17
2023-03-26T11:31:20.165Z,21.74
2023-03-26T11:32:20.199Z,21.40
2023-03-26T11:33:20.262Z,21.10
2023-03-26T11:34:20.289Z,20.79
2023-03-26T11:35:40.841Z,20.55
2023-03-26T11:36:20.391Z,20.35
2023-03-26T11:37:20.459Z,20.19
2023-03-26T11:38:20.517Z,20.04
2023-03-26T11:39:20.633Z,19.90
2023-03-26T11:40:20.660Z,19.79
2023-03-26T11:44:13.787Z,20.21
2023-03-26T11:45:14.819Z,20.32
2023-03-26T11:46:15.656Z,21.52
2023-03-26T11:47:14.976Z,22.28
2023-03-26T11:48:15.018Z,21.87
2023-03-26T11:49:14.983Z,21.68
2023-03-26T11:53:08.070Z,25.69
2023-03-26T11:57:05.292Z,26.54
2023-03-26T11:58:03.233Z,27.05
2023-03-26T11:59:03.345Z,27.35
2023-03-26T12:00:03.302Z,26.24
2023-03-26T12:01:03.298Z,26.23
2023-03-26T12:02:03.460Z,26.27
2023-03-26T12:03:03.815Z,24.98
2023-03-26T12:04:03.622Z,23.96
2023-03-26T12:05:03.742Z,23.28
2023-03-26T12:08:56.738Z,21.43
2023-03-26T12:09:57.698Z,22.30
2023-03-26T12:12:45.752Z,24.33
2023-03-26T12:13:46.824Z,24.61
2023-03-26T12:14:46.887Z,24.72
2023-03-26T12:15:46.956Z,24.58
2023-03-26T12:16:47.081Z,23.79
2023-03-26T12:17:47.152Z,22.96
2023-03-26T12:18:47.128Z,22.29
2023-03-26T12:19:47.180Z,22.00
2023-03-26T12:20:47.250Z,21.96
2023-03-26T12:21:47.300Z,21.97
2023-03-26T12:22:47.930Z,21.81
2023-03-26T12:23:47.420Z,21.59
2023-03-26T12:24:47.464Z,21.40
2023-03-26T12:25:47.542Z,21.16
2023-03-26T12:26:47.595Z,20.90
2023-03-26T12:27:47.693Z,20.67
2023-03-26T12:28:47.754Z,20.47
2023-03-26T12:29:47.811Z,20.28
2023-03-26T12:34:24.466Z,19.81
2023-03-26T12:35:24.911Z,19.90
2023-03-26T12:36:24.973Z,19.94
2023-03-26T12:37:25.014Z,19.88
2023-03-26T12:38:25.074Z,19.90
2023-03-26T12:40:06.919Z,19.92
2023-03-26T12:40:25.232Z,19.90
2023-03-26T12:44:42.631Z,19.84
2023-03-26T12:44:59.636Z,19.96
2023-03-26T12:45:05.032Z,19.95
2023-03-26T12:47:55.211Z,19.94
2023-03-26T12:48:04.844Z,19.96
2023-03-26T12:48:10.061Z,19.91
2023-03-26T12:49:10.191Z,19.87
2023-03-26T12:50:10.158Z,19.82
2023-03-26T12:51:10.183Z,19.76
2023-03-26T12:57:11.899Z,19.42
2023-03-26T12:57:53.959Z,19.40
2023-03-26T12:58:54.023Z,19.36
2023-03-26T12:59:54.085Z,19.32
2023-03-26T13:00:54.593Z,19.29
2023-03-26T13:01:54.350Z,19.26
2023-03-26T13:02:54.310Z,19.23
2023-03-26T13:03:54.344Z,19.19
2023-03-26T13:05:05.056Z,19.15
2023-03-26T13:05:54.492Z,19.10
2023-03-26T13:07:00.250Z,19.06
2023-03-26T13:07:54.608Z,19.03
2023-03-26T13:08:54.714Z,19.00
2023-03-26T13:09:54.750Z,18.99
2023-03-26T13:10:54.989Z,18.97
2023-03-26T13:11:54.828Z,18.96
2023-03-26T13:12:54.888Z,18.95
2023-03-26T13:13:54.947Z,18.94
2023-03-26T13:14:55.003Z,18.95
2023-03-26T13:15:55.061Z,18.96
2023-03-26T13:16:55.171Z,18.99
2023-03-26T13:17:55.235Z,19.02
2023-03-26T13:18:55.228Z,19.07
2023-03-26T13:19:55.293Z,19.13
2023-03-26T13:20:55.482Z,19.16
2023-03-26T13:21:55.472Z,19.19
2023-03-26T13:22:55.514Z,19.24
2023-03-26T13:23:55.570Z,19.28
2023-03-26T13:24:55.633Z,19.38
2023-03-26T13:25:55.690Z,19.39
2023-03-26T13:26:55.942Z,19.46
2023-03-26T13:27:55.811Z,19.50
2023-03-26T13:28:55.858Z,19.52
2023-03-26T13:31:45.475Z,19.49
2023-03-26T13:32:44.964Z,19.45
2023-03-26T13:33:45.008Z,19.47
2023-03-26T13:34:45.067Z,19.46
2023-03-26T13:35:45.215Z,19.54
2023-03-26T13:36:45.224Z,19.62
2023-03-26T13:37:45.283Z,19.62
2023-03-26T13:38:45.286Z,19.57
2023-03-26T13:39:45.373Z,19.54
2023-03-26T13:40:45.416Z,19.64
2023-03-26T13:41:45.490Z,19.74
2023-03-26T13:42:45.577Z,19.79
2023-03-26T13:43:45.597Z,19.80
2023-03-26T13:44:45.661Z,19.81
2023-03-26T13:45:45.706Z,19.81
2023-03-26T13:46:45.777Z,19.83
2023-03-26T13:47:45.907Z,19.85
2023-03-26T13:48:45.910Z,19.88
2023-03-26T13:49:45.976Z,19.88
2023-03-26T13:50:46.033Z,19.90
2023-03-26T13:51:46.085Z,19.92
2023-03-26T13:52:46.164Z,19.92
2023-03-26T13:53:46.221Z,19.92
2023-03-26T13:54:46.317Z,19.93
2023-03-26T13:55:46.355Z,19.94
2023-03-26T13:56:46.429Z,19.95
2023-03-26T13:57:46.748Z,19.97
2023-03-26T13:58:46.522Z,19.99
2023-03-26T13:59:46.642Z,20.01
2023-03-26T14:00:46.637Z,20.02
2023-03-26T14:01:47.332Z,20.03
2023-03-26T14:02:46.798Z,20.05
2023-03-26T14:03:46.858Z,20.07
2023-03-26T14:04:46.891Z,20.09
2023-03-26T14:05:46.950Z,20.09
2023-03-26T14:06:46.985Z,20.09
2023-03-26T14:07:47.066Z,20.10
2023-03-26T14:08:47.113Z,20.10
2023-03-26T14:09:47.178Z,20.11
2023-03-26T14:10:47.223Z,20.06
2023-03-26T14:11:47.287Z,20.07
2023-03-26T14:12:47.378Z,20.08
2023-03-26T14:13:47.416Z,20.04
2023-03-26T14:14:48.939Z,20.00
2023-03-26T14:15:47.560Z,19.95
2023-03-26T14:16:47.583Z,19.92
2023-03-26T14:17:47.724Z,19.92
2023-03-26T14:18:47.698Z,19.96
2023-03-26T14:19:50.010Z,20.04
2023-03-26T14:20:47.830Z,20.10
2023-03-26T14:21:47.888Z,20.10
2023-03-26T14:22:47.961Z,20.04
2023-03-26T14:23:47.963Z,20.01
2023-03-26T14:24:48.023Z,20.02
2023-03-26T14:25:48.077Z,20.06
2023-03-26T14:26:48.120Z,20.12
2023-03-26T14:27:48.198Z,20.08
2023-03-26T14:28:48.274Z,19.98
2023-03-26T14:29:56.998Z,19.94
2023-03-26T14:30:48.384Z,19.82
2023-03-26T14:31:51.004Z,19.84
2023-03-26T14:32:48.551Z,19.87
2023-03-26T14:33:48.511Z,19.89
2023-03-26T14:34:48.563Z,19.81
2023-03-26T14:35:48.690Z,19.78
2023-03-26T14:36:48.744Z,19.76
2023-03-26T14:37:48.718Z,19.73
2023-03-26T14:38:48.772Z,19.71
2023-03-26T14:39:48.813Z,19.72
2023-03-26T14:40:48.865Z,19.77
2023-03-26T14:41:48.920Z,19.78
2023-03-26T14:42:48.992Z,19.78
2023-03-26T14:43:49.049Z,19.81
2023-03-26T14:44:49.366Z,19.78
2023-03-26T14:45:49.192Z,19.83
2023-03-26T14:46:49.308Z,19.78
2023-03-26T14:47:49.438Z,19.79
2023-03-26T14:48:49.351Z,19.79
2023-03-26T14:49:49.409Z,19.72
2023-03-26T14:50:49.460Z,19.70
2023-03-26T14:51:49.526Z,19.64
2023-03-26T14:52:49.628Z,19.59
2023-03-26T14:53:49.644Z,19.52
2023-03-26T14:54:49.736Z,19.49
2023-03-26T14:55:49.747Z,19.43
2023-03-26T14:56:49.882Z,19.37
2023-03-26T14:57:49.997Z,19.29
2023-03-26T14:58:51.501Z,19.21
2023-03-26T14:59:49.956Z,19.17
2023-03-26T15:00:50.078Z,19.09
2023-03-26T15:01:50.123Z,19.01
2023-03-26T15:02:52.176Z,19.03
2023-03-26T15:03:50.519Z,19.05
2023-03-26T15:04:51.997Z,19.03
2023-03-26T15:05:50.988Z,19.03
2023-03-26T15:06:50.414Z,18.98
2023-03-26T15:07:50.487Z,18.85
2023-03-26T15:08:50.531Z,18.82
2023-03-26T15:09:50.599Z,18.80
2023-03-26T15:10:50.628Z,18.75
2023-03-26T15:11:50.677Z,18.67
2023-03-26T15:12:50.755Z,18.67
2023-03-26T15:13:50.783Z,18.60
2023-03-26T15:14:50.853Z,18.55
2023-03-26T15:15:54.070Z,18.55
2023-03-26T15:16:51.053Z,18.55
2023-03-26T15:17:53.064Z,18.49
2023-03-26T15:18:51.107Z,18.43
2023-03-26T15:19:51.177Z,18.40
2023-03-26T15:20:51.263Z,18.37
2023-03-26T15:23:49.923Z,18.22
2023-03-26T15:24:40.376Z,18.20
2023-03-26T15:25:40.391Z,18.16
2023-03-26T15:26:40.452Z,18.18
2023-03-26T15:27:40.544Z,18.16
2023-03-26T15:28:40.847Z,18.14
2023-03-26T15:31:28.631Z,18.07
2023-03-26T15:32:29.729Z,18.13
2023-03-26T15:33:29.744Z,18.08
2023-03-26T15:34:29.821Z,17.99
2023-03-26T15:35:29.854Z,17.90
2023-03-26T15:36:29.928Z,17.80
2023-03-26T15:37:29.991Z,17.71
2023-03-26T15:38:30.081Z,17.66
2023-03-26T15:39:30.087Z,17.67
2023-03-26T15:40:30.196Z,17.62
2023-03-26T15:41:30.535Z,17.55
2023-03-26T15:42:30.270Z,17.46
2023-03-26T15:43:30.336Z,17.37
2023-03-26T15:44:36.057Z,17.40
2023-03-26T15:45:30.454Z,17.31
2023-03-26T15:46:30.549Z,17.27
2023-03-26T15:47:30.638Z,17.20
2023-03-26T15:48:30.783Z,17.15
2023-03-26T15:49:30.687Z,17.17
2023-03-26T15:50:30.754Z,17.11
2023-03-26T15:51:30.797Z,17.01
2023-03-26T15:52:30.913Z,16.97
2023-03-26T15:55:19.011Z,16.83
2023-03-26T15:56:19.973Z,16.86
2023-03-26T15:57:20.187Z,16.85
2023-03-26T15:58:20.152Z,17.30
2023-03-26T15:59:20.153Z,17.19
2023-03-26T16:00:20.251Z,17.06
2023-03-26T16:01:20.316Z,16.96
2023-03-26T16:02:20.430Z,16.90
2023-03-26T16:03:20.585Z,16.87
2023-03-26T16:04:20.530Z,16.85
2023-03-26T16:05:20.608Z,16.84
2023-03-26T16:06:20.639Z,16.84
2023-03-26T16:07:20.744Z,16.84
2023-03-26T16:08:20.779Z,16.84
2023-03-26T16:09:20.826Z,16.85
2023-03-26T16:10:20.839Z,16.85
2023-03-26T16:11:20.926Z,16.86
2023-03-26T16:12:20.983Z,16.86
2023-03-26T16:13:21.096Z,16.86
2023-03-26T16:14:23.590Z,16.86
2023-03-26T16:15:21.217Z,16.86
2023-03-26T16:16:22.052Z,16.86
2023-03-26T16:17:21.542Z,16.87
2023-03-26T16:18:21.399Z,16.87
2023-03-26T16:19:22.036Z,16.87
2023-03-26T16:20:21.479Z,16.88
2023-03-26T16:21:31.672Z,16.87
2023-03-26T16:22:21.957Z,16.87
2023-03-26T16:23:21.684Z,16.88
2023-03-26T16:24:21.725Z,16.88
2023-03-26T16:25:27.080Z,16.89
2023-03-26T16:26:21.814Z,16.88
2023-03-26T16:27:21.859Z,16.89
2023-03-26T16:28:22.305Z,16.89
2023-03-26T16:31:23.616Z,16.86
2023-03-26T16:32:11.217Z,16.87
2023-03-26T16:33:11.099Z,16.88
2023-03-26T16:34:11.163Z,16.88
2023-03-26T16:35:11.173Z,16.88
2023-03-26T16:36:11.266Z,16.88
2023-03-26T16:37:11.289Z,16.87
2023-03-26T16:38:11.363Z,16.87
2023-03-26T16:39:11.466Z,16.88
2023-03-26T16:40:11.651Z,16.88
2023-03-26T16:41:11.511Z,16.88
2023-03-26T16:42:11.565Z,16.87
2023-03-26T16:43:11.722Z,16.87
2023-03-26T16:44:11.705Z,16.87
2023-03-26T16:45:11.708Z,16.87
2023-03-26T16:46:11.840Z,16.87
2023-03-26T16:47:12.000Z,16.88
2023-03-26T16:48:12.053Z,16.87
2023-03-26T16:49:11.980Z,16.87
2023-03-26T16:50:12.060Z,16.87
2023-03-26T16:51:12.161Z,16.87
2023-03-26T16:52:12.125Z,16.87
2023-03-26T16:53:12.208Z,16.88
2023-03-26T16:54:12.282Z,16.88
2023-03-26T16:55:12.354Z,16.88
2023-03-26T16:56:12.445Z,16.87
2023-03-26T16:57:12.492Z,16.87
2023-03-26T16:58:12.546Z,16.87
2023-03-26T16:59:12.613Z,16.87
2023-03-26T17:00:12.691Z,16.87
2023-03-26T17:01:12.819Z,16.87
2023-03-26T17:02:13.718Z,16.88
2023-03-26T17:03:13.129Z,16.89
2023-03-26T17:04:12.974Z,16.88
2023-03-26T17:05:12.997Z,16.88
2023-03-26T17:06:13.053Z,16.88
2023-03-26T17:07:13.124Z,16.87
2023-03-26T17:08:13.196Z,16.87
2023-03-26T17:09:13.289Z,16.87
2023-03-26T17:10:13.344Z,16.86
2023-03-26T17:11:13.404Z,16.86
2023-03-26T17:12:13.467Z,16.86
2023-03-26T17:13:13.520Z,16.84
2023-03-26T17:14:13.640Z,16.82
2023-03-26T17:15:13.691Z,16.79
2023-03-26T17:16:14.584Z,16.77
2023-03-26T17:17:13.769Z,16.77
2023-03-26T17:18:13.907Z,16.76
2023-03-26T17:19:14.024Z,16.74
2023-03-26T17:20:13.968Z,16.74
2023-03-26T17:21:14.030Z,16.75
2023-03-26T17:22:14.086Z,16.75
2023-03-26T17:23:14.194Z,16.75
2023-03-26T17:24:15.575Z,16.75
2023-03-26T17:25:14.285Z,16.74
2023-03-26T17:26:14.344Z,16.74
2023-03-26T17:27:14.394Z,16.74
2023-03-26T17:28:14.479Z,16.73
2023-03-26T17:29:14.770Z,16.73
2023-03-26T17:30:14.572Z,16.73
2023-03-26T17:31:14.770Z,16.72
2023-03-26T17:32:14.685Z,16.72
2023-03-26T17:33:14.828Z,16.71
2023-03-26T17:34:15.212Z,16.71
2023-03-26T17:35:14.929Z,16.71
2023-03-26T17:36:14.964Z,16.70
2023-03-26T17:37:15.086Z,16.70
2023-03-26T17:38:15.132Z,16.69
2023-03-26T17:39:15.456Z,16.69
2023-03-26T17:40:15.291Z,16.68
2023-03-26T17:41:17.667Z,16.68
2023-03-26T17:42:15.663Z,16.67
2023-03-26T17:43:15.676Z,16.67
2023-03-26T17:44:15.549Z,16.67
2023-03-26T17:45:15.532Z,16.66
2023-03-26T17:46:15.722Z,16.66
2023-03-26T17:47:15.697Z,16.65
2023-03-26T17:48:15.858Z,16.64
2023-03-26T17:49:15.917Z,16.64
2023-03-26T17:50:15.873Z,16.63
2023-03-26T17:51:16.011Z,16.63
2023-03-26T17:52:15.922Z,16.63
2023-03-26T17:53:16.000Z,16.62
2023-03-26T17:54:16.338Z,16.61
2023-03-26T17:55:16.204Z,16.61
2023-03-26T17:56:16.183Z,16.61
2023-03-26T17:57:16.390Z,16.59
2023-03-26T17:58:16.315Z,16.60
2023-03-26T17:59:16.519Z,16.62
2023-03-26T18:00:16.608Z,16.63
2023-03-26T18:01:16.470Z,16.63
2023-03-26T18:02:17.815Z,16.63
2023-03-26T18:03:16.777Z,16.63
2023-03-26T18:04:16.971Z,16.62
2023-03-26T18:05:16.819Z,16.61
2023-03-26T18:06:16.774Z,16.60
2023-03-26T18:07:16.951Z,16.59
2023-03-26T18:08:16.939Z,16.59
2023-03-26T18:09:17.063Z,16.59
2023-03-26T18:12:04.980Z,16.57
2023-03-26T18:13:06.252Z,16.57
2023-03-26T18:14:06.180Z,16.58
2023-03-26T18:15:06.166Z,16.57
2023-03-26T18:16:06.476Z,16.57
2023-03-26T18:17:06.280Z,16.57
2023-03-26T18:18:06.317Z,16.57
2023-03-26T18:19:07.176Z,16.56
2023-03-26T18:20:06.459Z,16.56
2023-03-26T18:21:06.784Z,16.56
2023-03-26T18:23:54.781Z,16.52
2023-03-26T18:24:55.719Z,16.52
2023-03-26T18:25:57.378Z,16.52
2023-03-26T18:28:44.173Z,16.51
2023-03-26T18:29:44.827Z,16.51
2023-03-26T18:30:44.905Z,16.51
2023-03-26T18:31:45.651Z,16.51
2023-03-26T18:34:48.926Z,16.49
2023-03-26T18:35:34.338Z,16.50
2023-03-26T18:36:34.328Z,16.50
2023-03-26T18:37:34.262Z,16.50
2023-03-26T18:38:35.659Z,16.50
2023-03-26T18:39:34.514Z,16.50
2023-03-26T18:44:26.685Z,16.47
2023-03-26T18:45:28.540Z,16.47
2023-03-26T18:46:27.809Z,16.47
2023-03-26T18:47:27.991Z,16.47
2023-03-26T18:50:29.946Z,16.46
2023-03-26T18:51:16.930Z,16.46
2023-03-26T18:52:17.110Z,16.45
2023-03-26T18:53:17.126Z,16.45
2023-03-26T18:54:18.079Z,16.45
2023-03-26T18:57:05.528Z,16.43
2023-03-26T18:58:06.251Z,16.43
2023-03-26T18:59:06.323Z,16.44
2023-03-26T19:00:06.400Z,16.44
2023-03-26T19:01:11.889Z,16.44
2023-03-26T19:02:06.777Z,16.43
2023-03-26T19:03:06.755Z,16.42
2023-03-26T19:05:55.696Z,16.40